Stations météo

réclame
Mon MeteoGroup
Stansted, Grande-Bretagne (3683): Température de l'air & dewpoint: 12.01.2019 11:00:00 - 18.01.2019 11:00:00 (GMT)Stansted, Grande-Bretagne (3683): Vitesse du vent: 12.01.2019 11:00:00 - 18.01.2019 11:00:00 (GMT)Stansted, Grande-Bretagne (3683): Direction du vent: 12.01.2019 11:00:00 - 18.01.2019 11:00:00 (GMT)Stansted, Grande-Bretagne (3683): visibility: 12.01.2019 11:00:00 - 18.01.2019 11:00:00 (GMT)
Date & Time tt [°C] td [°C] ff [km/h] ff [knt] dd vv [km]
18.01.2019 11:00:00 3,0 -2,0 15 8 SSE 10
18.01.2019 10:00:00 1,0 -2,0 13 7 SSE 10
18.01.2019 09:00:00 -1,0 -3,0 11 6 SSE 10
18.01.2019 08:00:00 -1,0 -3,0 9 5 S 10
18.01.2019 07:00:00 -1,0 -3,0 9 5 S 10
18.01.2019 06:00:00 -2,0 -4,0 4 2 S 10
18.01.2019 05:00:00 -2,0 -4,0 4 2 SSW 10
18.01.2019 04:00:00 -2,0 -4,0 5 3 - 10
18.01.2019 03:00:00 -2,0 -4,0 5 3 WSW 10
18.01.2019 02:00:00 -2,0 -4,0 5 3 WNW 10
18.01.2019 01:00:00 -2,0 -4,0 8 4 WSW 10
18.01.2019 00:00:00 -1,0 -4,0 5 3 NNW 10
17.01.2019 23:00:00 0,0 -4,0 8 4 NW 10
17.01.2019 22:00:00 0,0 -4,0 8 4 NW 10
17.01.2019 21:00:00 1,0 -3,0 9 5 NW 10
17.01.2019 20:00:00 1,0 -3,0 9 5 NW 10
17.01.2019 19:00:00 1,0 -3,0 15 8 WNW 10
17.01.2019 18:00:00 1,0 -3,0 11 6 WNW 10
17.01.2019 17:00:00 2,0 -3,0 11 6 WNW 10
17.01.2019 16:00:00 3,0 -3,0 16 9 NW 10
17.01.2019 15:00:00 4,0 -3,0 22 12 NW 10
17.01.2019 14:00:00 3,0 -3,0 24 13 NW 10
17.01.2019 13:00:00 3,0 -3,0 22 12 NW 10
17.01.2019 12:00:00 3,0 -3,0 24 13 NW 10
17.01.2019 11:00:00 2,0 -3,0 22 12 NW 10
17.01.2019 10:00:00 1,0 -2,0 18 10 NW 10
17.01.2019 09:00:00 1,0 -1,0 16 9 NW 10
17.01.2019 08:00:00 1,0 0,0 22 12 NNW 10
17.01.2019 07:00:00 3,0 1,0 18 10 NW 10
17.01.2019 06:00:00 2,0 1,0 16 9 WNW 10
17.01.2019 05:00:00 3,0 2,0 15 8 WNW 10
17.01.2019 04:00:00 3,0 3,0 9 5 WNW 9
17.01.2019 03:00:00 3,0 3,0 4 2 - 4,7
17.01.2019 02:00:00 3,0 3,0 5 3 - 2,1
17.01.2019 01:00:00 3,0 3,0 9 5 WSW 1,8
17.01.2019 00:00:00 2,0 2,0 11 6 SW 1,4
16.01.2019 23:00:00 1,0 1,0 13 7 SW 2,1
16.01.2019 22:00:00 2,0 2,0 15 8 WSW 7
16.01.2019 21:00:00 3,0 2,0 13 7 WSW 8
16.01.2019 20:00:00 2,0 2,0 11 6 SW 4,3
16.01.2019 19:00:00 4,0 3,0 9 5 W 10
16.01.2019 18:00:00 4,0 3,0 8 4 W 10
16.01.2019 17:00:00 5,0 4,0 18 10 NW 7
16.01.2019 16:00:00 6,0 5,0 24 13 WNW 7
16.01.2019 15:00:00 8,0 8,0 18 10 SW 4,9
16.01.2019 14:00:00 9,0 8,0 28 15 SW 10
16.01.2019 13:00:00 9,0 8,0 28 15 SSW 10
16.01.2019 12:00:00 8,0 8,0 24 13 SSW 9
16.01.2019 11:00:00 8,0 8,0 26 14 SSW 3,7
16.01.2019 10:00:00 8,0 7,0 28 15 SSW 5
16.01.2019 09:00:00 8,0 7,0 26 14 SSW 5
16.01.2019 08:00:00 8,0 7,0 22 12 SSW 3,5
16.01.2019 07:00:00 8,0 7,0 28 15 SW 6
16.01.2019 06:00:00 8,0 7,0 22 12 SW 3,6
16.01.2019 05:00:00 8,0 6,0 26 14 SW 10
16.01.2019 04:00:00 8,0 6,0 18 10 SW 10
16.01.2019 03:00:00 8,0 6,0 21 11 SW 10
16.01.2019 02:00:00 7,0 6,0 21 11 SW 10
16.01.2019 01:00:00 7,0 5,0 24 13 SW 10
16.01.2019 00:00:00 7,0 5,0 24 13 SW 10
15.01.2019 23:00:00 8,0 5,0 22 12 SW 10
15.01.2019 22:00:00 8,0 5,0 18 10 SW 10
15.01.2019 21:00:00 8,0 6,0 21 11 SW 10
15.01.2019 20:00:00 7,0 6,0 18 10 SW 10
15.01.2019 19:00:00 7,0 7,0 16 9 SW 10
15.01.2019 18:00:00 8,0 6,0 18 10 SW 10
15.01.2019 17:00:00 8,0 6,0 18 10 SW 10
15.01.2019 16:00:00 8,0 6,0 16 9 WSW 10
15.01.2019 15:00:00 8,0 6,0 21 11 WSW 10
15.01.2019 14:00:00 8,0 6,0 18 10 WSW 10
15.01.2019 13:00:00 8,0 5,0 18 10 WSW 10
15.01.2019 12:00:00 8,0 5,0 21 11 WSW 10
15.01.2019 11:00:00 7,0 4,0 18 10 WSW 10
15.01.2019 10:00:00 6,0 4,0 16 9 WSW 10
15.01.2019 09:00:00 5,0 3,0 21 11 SW 10
15.01.2019 08:00:00 4,0 3,0 16 9 SW 10
15.01.2019 07:00:00 4,0 2,0 13 7 WSW 10
15.01.2019 06:00:00 2,0 1,0 15 8 SW 10
15.01.2019 05:00:00 2,0 0,0 15 8 SW 10
15.01.2019 04:00:00 1,0 0,0 16 9 SW 10
15.01.2019 03:00:00 2,0 1,0 11 6 WSW 10
15.01.2019 02:00:00 2,0 1,0 8 4 WSW 10
15.01.2019 01:00:00 3,0 1,0 5 3 WSW 10
15.01.2019 00:00:00 3,0 2,0 11 6 W 10
14.01.2019 23:00:00 4,0 2,0 8 4 W 10
14.01.2019 22:00:00 5,0 3,0 8 4 W 10
14.01.2019 21:00:00 5,0 3,0 8 4 W 10
14.01.2019 20:00:00 6,0 3,0 9 5 W 10
14.01.2019 19:00:00 6,0 3,0 8 4 W 10
14.01.2019 18:00:00 7,0 3,0 9 5 WNW 10
14.01.2019 17:00:00 7,0 3,0 9 5 WNW 10
14.01.2019 16:00:00 8,0 3,0 13 7 WNW 10
14.01.2019 15:00:00 8,0 4,0 9 5 WNW 10
14.01.2019 14:00:00 8,0 4,0 15 8 NW 10
14.01.2019 13:00:00 8,0 4,0 15 8 NW 10
14.01.2019 12:00:00 7,0 4,0 15 8 NW 10
14.01.2019 11:00:00 7,0 4,0 16 9 NW 10
14.01.2019 10:00:00 6,0 4,0 11 6 WNW 10
14.01.2019 09:00:00 5,0 3,0 13 7 WNW 10
14.01.2019 08:00:00 6,0 3,0 16 9 NW 10
14.01.2019 07:00:00 6,0 3,0 16 9 WNW 10
14.01.2019 06:00:00 6,0 3,0 21 11 WNW 10
14.01.2019 05:00:00 6,0 3,0 18 10 WNW 10
14.01.2019 04:00:00 6,0 3,0 16 9 WNW 10
14.01.2019 03:00:00 6,0 3,0 18 10 WNW 10
14.01.2019 02:00:00 6,0 3,0 21 11 WNW 10
14.01.2019 01:00:00 7,0 3,0 24 13 WNW 10
14.01.2019 00:00:00 7,0 3,0 22 12 WNW 10
13.01.2019 23:00:00 7,0 3,0 24 13 WNW 10
13.01.2019 22:00:00 8,0 3,0 21 11 WNW 10
13.01.2019 21:00:00 8,0 3,0 26 14 NW 10
13.01.2019 20:00:00 8,0 5,0 28 15 NW 10
13.01.2019 19:00:00 10,0 5,0 26 14 WNW 10
13.01.2019 18:00:00 11,0 6,0 21 11 WNW 10
13.01.2019 17:00:00 11,0 7,0 26 14 W 10
13.01.2019 16:00:00 11,0 7,0 22 12 W 10
13.01.2019 15:00:00 10,0 8,0 24 13 W 10
13.01.2019 14:00:00 10,0 7,0 26 14 W 10
13.01.2019 13:00:00 10,0 7,0 29 16 W 10
13.01.2019 12:00:00 10,0 7,0 22 12 W 10
13.01.2019 11:00:00 10,0 6,0 22 12 W 10
13.01.2019 10:00:00 10,0 6,0 22 12 W 10
13.01.2019 09:00:00 10,0 7,0 24 13 W 10
13.01.2019 08:00:00 10,0 7,0 18 10 W 10
13.01.2019 07:00:00 10,0 7,0 21 11 W 10
13.01.2019 06:00:00 10,0 7,0 18 10 W 10
13.01.2019 05:00:00 10,0 7,0 18 10 W 10
13.01.2019 04:00:00 10,0 7,0 16 9 W 10
13.01.2019 03:00:00 10,0 7,0 16 9 W 10
13.01.2019 02:00:00 10,0 7,0 16 9 W 10
13.01.2019 01:00:00 10,0 7,0 18 10 WNW 10
13.01.2019 00:00:00 10,0 7,0 22 12 WNW 10
12.01.2019 23:00:00 10,0 7,0 21 11 WNW 10
12.01.2019 22:00:00 9,0 7,0 21 11 WNW 10
12.01.2019 21:00:00 9,0 6,0 16 9 W 10
12.01.2019 20:00:00 8,0 5,0 16 9 W 10
12.01.2019 19:00:00 8,0 5,0 16 9 W 10
12.01.2019 18:00:00 8,0 5,0 16 9 W 10
12.01.2019 17:00:00 8,0 5,0 18 10 W 10
12.01.2019 16:00:00 9,0 5,0 22 12 WNW 10
12.01.2019 15:00:00 9,0 6,0 18 10 WNW 10
12.01.2019 14:00:00 9,0 6,0 22 12 WNW 10
12.01.2019 13:00:00 9,0 7,0 18 10 W 10
12.01.2019 12:00:00 9,0 7,0 21 11 W 10
12.01.2019 11:00:00 9,0 7,0 21 11 W 10

tt = Température de l'air
td = dewpoint
ff = Vitesse du vent
dd = Direction du vent
vv = visibility

stations d'obs. à proximité